Evansville, Indiana
Current Conditions -  °F | °C
As of 11:18 AM on Friday 31 Oct 2014 (Local Time) from KEVV Reporting Station
Overcast Overcast  
Wind Chill: 40°   Ceiling: 2000
Heat Index: 44°   Visibility: 10mi
Dew Point: 37°   Wind: 8mph
Humidity: 76%   Direction: 330°NNW
Pressure: 30.1"   Gusts: 18mph
Location:  37.98°N, 87.56°W
Report Text: KEVV 311618Z 33007G16KT 10SM BKN020 BKN026 OVC034 07/03 A3010 RMK AO2 T00670028
Loading
Personal Weather Stations






























Interactive Weather Map
Tropical Storm Tracking
New forecast layout! Learn more

10-Day Weather Forecast

Advertisements
Track Severe Weather on mobile